createdAt,value
2022-12-12T00:01:46.548Z,24.67
2022-12-12T00:04:29.266Z,21.90
2022-12-12T00:07:11.876Z,21.55
2022-12-12T00:09:54.433Z,20.75
2022-12-12T00:12:38.435Z,21.08
2022-12-12T00:15:21.346Z,22.05
2022-12-12T00:18:03.972Z,22.35
2022-12-12T00:20:46.627Z,23.10
2022-12-12T00:23:29.387Z,19.60
2022-12-12T00:26:16.101Z,20.13
2022-12-12T00:29:00.333Z,20.75
2022-12-12T00:31:42.934Z,19.60
2022-12-12T00:34:25.501Z,23.85
2022-12-12T00:37:08.080Z,20.40
2022-12-12T00:39:50.651Z,23.73
2022-12-12T00:42:33.270Z,22.45
2022-12-12T00:45:17.441Z,19.45
2022-12-12T00:48:00.158Z,18.85
2022-12-12T00:50:43.223Z,18.95
2022-12-12T00:53:26.166Z,21.88
2022-12-12T00:56:08.751Z,20.20
2022-12-12T00:58:51.797Z,21.73
2022-12-12T01:01:36.144Z,21.08
2022-12-12T01:04:19.016Z,20.50
2022-12-12T01:07:01.806Z,21.00
2022-12-12T01:09:44.415Z,20.63
2022-12-12T01:12:26.945Z,19.88
2022-12-12T01:15:10.922Z,20.30
2022-12-12T01:17:55.214Z,19.55
2022-12-12T01:20:37.825Z,21.63
2022-12-12T01:23:20.415Z,22.38
2022-12-12T01:26:03.477Z,21.60
2022-12-12T01:28:46.282Z,22.10
2022-12-12T01:31:28.872Z,22.77
2022-12-12T01:34:13.078Z,23.17
2022-12-12T01:36:55.676Z,22.45
2022-12-12T01:39:38.240Z,21.08
2022-12-12T01:42:20.920Z,23.95
2022-12-12T01:45:03.943Z,20.48
2022-12-12T01:47:46.600Z,22.17
2022-12-12T01:50:30.496Z,24.75
2022-12-12T01:53:14.274Z,23.33
2022-12-12T01:55:57.231Z,22.20
2022-12-12T01:58:41.037Z,23.20
2022-12-12T02:01:24.007Z,22.50
2022-12-12T02:04:07.751Z,24.27
2022-12-12T02:06:52.427Z,23.55
2022-12-12T02:09:36.907Z,22.15
2022-12-12T02:12:19.446Z,22.10
2022-12-12T02:15:02.050Z,21.38
2022-12-12T02:17:51.896Z,21.65
2022-12-12T02:20:44.554Z,20.85
2022-12-12T02:23:57.148Z,21.27
2022-12-12T02:27:06.777Z,18.85
2022-12-12T02:30:03.152Z,20.98
2022-12-12T02:32:56.996Z,18.92
2022-12-12T02:35:44.378Z,21.38
2022-12-12T02:38:29.149Z,21.48
2022-12-12T02:41:15.230Z,20.90
2022-12-12T02:44:01.980Z,21.23
2022-12-12T02:46:47.601Z,20.95
2022-12-12T02:49:33.947Z,21.00
2022-12-12T02:52:17.520Z,22.42
2022-12-12T02:55:00.189Z,21.63
2022-12-12T02:57:43.285Z,22.23
2022-12-12T03:00:26.517Z,21.00
2022-12-12T03:03:39.455Z,20.38
2022-12-12T03:06:54.329Z,20.15
2022-12-12T03:09:43.936Z,23.80
2022-12-12T03:12:28.542Z,20.88
2022-12-12T03:15:15.585Z,20.70
2022-12-12T03:18:02.767Z,22.80
2022-12-12T03:20:48.893Z,25.88
2022-12-12T03:23:34.576Z,21.83
2022-12-12T03:26:20.744Z,24.00
2022-12-12T03:29:06.645Z,24.20
2022-12-12T03:31:52.216Z,22.92
2022-12-12T03:34:37.282Z,25.10
2022-12-12T03:37:21.852Z,22.40
2022-12-12T03:40:06.711Z,22.48
2022-12-12T03:42:54.937Z,20.33
2022-12-12T03:45:39.000Z,20.27
2022-12-12T03:48:24.976Z,24.17
2022-12-12T03:51:09.777Z,22.42
2022-12-12T03:53:54.112Z,23.58
2022-12-12T03:56:39.596Z,24.38
2022-12-12T03:59:27.535Z,24.30
2022-12-12T04:02:13.934Z,22.85
2022-12-12T04:04:59.619Z,22.05
2022-12-12T04:07:44.361Z,24.70
2022-12-12T04:10:46.280Z,23.05
2022-12-12T04:13:32.436Z,19.48
2022-12-12T04:16:17.684Z,22.70
2022-12-12T04:19:02.317Z,18.20
2022-12-12T04:22:05.576Z,21.75
2022-12-12T04:24:50.089Z,21.00
2022-12-12T04:27:36.404Z,21.55
2022-12-12T04:30:19.100Z,21.63
2022-12-12T04:33:06.660Z,18.95
2022-12-12T04:35:51.004Z,19.80
2022-12-12T04:38:33.650Z,22.67
2022-12-12T04:41:17.313Z,21.67
2022-12-12T04:44:01.927Z,25.15
2022-12-12T04:46:46.033Z,21.40
2022-12-12T04:49:31.761Z,23.30
2022-12-12T04:52:16.394Z,21.60
2022-12-12T04:55:01.287Z,21.52
2022-12-12T04:57:45.661Z,23.92
2022-12-12T05:00:32.073Z,21.52
2022-12-12T05:03:18.108Z,21.70
2022-12-12T05:06:06.042Z,20.98
2022-12-12T05:08:49.567Z,21.85
2022-12-12T05:11:32.370Z,27.27
2022-12-12T05:14:16.316Z,23.10
2022-12-12T05:17:02.116Z,22.98
2022-12-12T05:19:44.709Z,22.42
2022-12-12T05:22:28.693Z,22.20
2022-12-12T05:25:12.013Z,24.88
2022-12-12T05:27:54.916Z,24.65
2022-12-12T05:30:37.762Z,23.70
2022-12-12T05:33:20.365Z,24.80
2022-12-12T05:36:02.973Z,26.77
2022-12-12T05:38:46.965Z,22.77
2022-12-12T05:41:30.064Z,23.73
2022-12-12T05:44:13.219Z,24.50
2022-12-12T05:46:55.838Z,26.40
2022-12-12T05:49:38.463Z,26.08
2022-12-12T05:52:22.335Z,24.83
2022-12-12T05:55:07.257Z,23.63
2022-12-12T05:57:49.896Z,23.52
2022-12-12T06:00:32.500Z,25.75
2022-12-12T06:03:15.173Z,25.02
2022-12-12T06:05:57.741Z,23.50
2022-12-12T06:08:40.486Z,25.88
2022-12-12T06:11:24.479Z,24.80
2022-12-12T06:14:07.096Z,25.85
2022-12-12T06:16:49.866Z,26.33
2022-12-12T06:19:32.482Z,24.00
2022-12-12T06:22:15.082Z,25.55
2022-12-12T06:24:57.755Z,21.50
2022-12-12T06:27:41.870Z,25.83
2022-12-12T06:30:24.426Z,29.92
2022-12-12T06:33:07.052Z,26.45
2022-12-12T06:35:58.194Z,25.80
2022-12-12T06:38:40.896Z,23.73
2022-12-12T06:41:24.670Z,27.30
2022-12-12T06:44:08.700Z,28.27
2022-12-12T06:46:51.316Z,28.80
2022-12-12T06:49:33.926Z,26.10
2022-12-12T06:52:16.528Z,27.55
2022-12-12T06:54:59.127Z,21.50
2022-12-12T06:57:41.786Z,23.17
2022-12-12T07:00:25.720Z,23.83
2022-12-12T07:03:08.406Z,25.65
2022-12-12T07:05:51.034Z,24.13
2022-12-12T07:08:35.081Z,26.17
2022-12-12T07:11:18.591Z,27.23
2022-12-12T07:14:03.696Z,26.95
2022-12-12T07:16:47.701Z,28.73
2022-12-12T07:19:30.313Z,24.27
2022-12-12T07:22:12.929Z,22.73
2022-12-12T07:24:55.610Z,24.98
2022-12-12T07:27:38.438Z,24.50
2022-12-12T07:30:21.069Z,23.75
2022-12-12T07:33:05.031Z,26.92
2022-12-12T07:35:47.739Z,26.10
2022-12-12T07:38:30.316Z,26.42
2022-12-12T07:41:14.327Z,29.10
2022-12-12T07:43:57.117Z,24.48
2022-12-12T07:46:39.809Z,25.15
2022-12-12T07:49:24.060Z,24.75
2022-12-12T07:52:08.112Z,28.38
2022-12-12T07:54:50.718Z,26.60
2022-12-12T07:57:33.438Z,23.80
2022-12-12T08:00:16.665Z,24.13
2022-12-12T08:02:59.348Z,26.85
2022-12-12T08:05:43.489Z,25.88
2022-12-12T08:08:26.294Z,26.95
2022-12-12T08:11:09.827Z,26.15
2022-12-12T08:13:52.792Z,28.38
2022-12-12T08:16:35.715Z,26.83
2022-12-12T08:19:18.759Z,27.38
2022-12-12T08:22:03.198Z,24.40
2022-12-12T08:24:45.832Z,22.10
2022-12-12T08:27:28.596Z,22.55
2022-12-12T08:30:11.917Z,23.50
2022-12-12T08:32:55.017Z,25.15
2022-12-12T08:35:37.747Z,27.33
2022-12-12T08:38:21.789Z,20.48
2022-12-12T08:41:04.730Z,20.67
2022-12-12T08:43:47.452Z,22.02
2022-12-12T08:46:30.228Z,29.00
2022-12-12T08:49:13.289Z,27.13
2022-12-12T08:51:55.944Z,30.98
2022-12-12T08:54:40.018Z,30.48
2022-12-12T08:57:25.932Z,35.72
2022-12-12T09:00:09.729Z,31.17
2022-12-12T09:02:52.466Z,28.10
2022-12-12T09:05:35.244Z,30.23
2022-12-12T09:08:18.089Z,29.67
2022-12-12T09:11:02.046Z,32.70
2022-12-12T09:13:44.782Z,29.55
2022-12-12T09:16:29.876Z,32.65
2022-12-12T09:19:12.598Z,32.50
2022-12-12T09:21:55.218Z,32.50
2022-12-12T09:24:37.853Z,34.95
2022-12-12T09:27:21.830Z,30.02
2022-12-12T09:30:04.826Z,31.30
2022-12-12T09:32:47.478Z,29.77
2022-12-12T09:35:30.208Z,33.75
2022-12-12T09:38:15.014Z,30.90
2022-12-12T09:40:59.946Z,31.15
2022-12-12T09:43:52.691Z,31.70
2022-12-12T09:46:37.572Z,28.60
2022-12-12T09:49:26.134Z,28.48
2022-12-12T09:52:10.431Z,30.05
2022-12-12T09:54:54.061Z,31.75
2022-12-12T09:57:40.556Z,32.10
2022-12-12T10:00:24.622Z,35.35
2022-12-12T10:03:14.690Z,32.05
2022-12-12T10:06:28.596Z,31.33
2022-12-12T10:09:13.449Z,29.02
2022-12-12T10:11:56.760Z,32.47
2022-12-12T10:14:40.361Z,27.77
2022-12-12T10:17:27.845Z,30.73
2022-12-12T10:20:16.157Z,19.38
2022-12-12T10:23:02.944Z,18.98
2022-12-12T10:25:49.386Z,22.58
2022-12-12T10:28:32.970Z,17.17
2022-12-12T10:31:21.622Z,17.60
2022-12-12T10:34:18.905Z,17.73
2022-12-12T10:37:10.454Z,18.70
2022-12-12T10:39:58.139Z,20.13
2022-12-12T10:42:42.624Z,19.55
2022-12-12T10:45:31.943Z,24.13
2022-12-12T10:48:14.926Z,22.85
2022-12-12T10:51:01.529Z,21.60
2022-12-12T10:53:45.082Z,22.88
2022-12-12T10:56:28.980Z,21.63
2022-12-12T10:59:21.900Z,23.80
2022-12-12T11:02:11.800Z,24.50
2022-12-12T11:05:02.155Z,19.63
2022-12-12T11:07:47.445Z,19.02
2022-12-12T11:10:34.223Z,17.90
2022-12-12T11:13:17.824Z,19.00
2022-12-12T11:16:01.942Z,17.42
2022-12-12T11:18:57.277Z,21.08
2022-12-12T11:21:39.976Z,20.42
2022-12-12T11:24:25.251Z,17.80
2022-12-12T11:27:08.425Z,22.27
2022-12-12T11:29:52.646Z,21.23
2022-12-12T11:32:39.472Z,22.00
2022-12-12T11:35:24.519Z,23.27
2022-12-12T11:38:08.534Z,21.83
2022-12-12T11:40:58.420Z,23.00
2022-12-12T11:43:54.397Z,24.13
2022-12-12T11:46:37.039Z,24.75
2022-12-12T11:49:20.722Z,21.92
2022-12-12T11:52:18.085Z,23.65
2022-12-12T11:55:02.275Z,20.98
2022-12-12T11:58:04.082Z,24.30
2022-12-12T12:00:51.828Z,24.67
2022-12-12T12:03:47.000Z,23.83
2022-12-12T12:06:36.090Z,23.45
2022-12-12T12:09:28.501Z,21.30
2022-12-12T12:12:14.081Z,20.88
2022-12-12T12:15:04.563Z,21.63
2022-12-12T12:17:58.052Z,27.65
2022-12-12T12:20:50.663Z,21.58
2022-12-12T12:23:42.536Z,23.25
2022-12-12T12:26:29.473Z,25.95
2022-12-12T12:29:30.338Z,24.05
2022-12-12T12:32:17.345Z,20.60
2022-12-12T12:35:09.090Z,25.05
2022-12-12T12:37:56.045Z,25.17
2022-12-12T12:40:48.841Z,27.98
2022-12-12T12:43:39.967Z,30.42
2022-12-12T12:46:26.476Z,23.50
2022-12-12T12:49:13.308Z,24.40
2022-12-12T12:51:59.361Z,25.88
2022-12-12T12:54:43.275Z,23.67
2022-12-12T12:57:28.873Z,25.48
2022-12-12T13:00:16.737Z,28.50
2022-12-12T13:03:02.230Z,27.00
2022-12-12T13:05:47.436Z,28.10
2022-12-12T13:08:34.092Z,24.92
2022-12-12T13:11:20.312Z,27.77
2022-12-12T13:14:10.498Z,24.70
2022-12-12T13:16:54.010Z,29.33
2022-12-12T13:19:38.935Z,25.77
2022-12-12T13:22:26.176Z,26.10
2022-12-12T13:25:15.491Z,26.38
2022-12-12T13:27:59.818Z,27.42
2022-12-12T13:30:48.643Z,27.77
2022-12-12T13:33:37.860Z,27.80
2022-12-12T13:36:27.655Z,27.67
2022-12-12T13:39:23.465Z,25.95
2022-12-12T13:42:08.741Z,25.20
2022-12-12T13:44:51.574Z,21.52
2022-12-12T13:47:59.249Z,24.77
2022-12-12T13:50:41.898Z,23.40
2022-12-12T13:53:24.495Z,22.67
2022-12-12T13:56:22.002Z,24.33
2022-12-12T13:59:26.103Z,29.67
2022-12-12T14:02:31.843Z,24.90
2022-12-12T14:05:16.675Z,25.98
2022-12-12T14:08:02.964Z,25.42
2022-12-12T14:10:52.566Z,23.95
2022-12-12T14:13:40.045Z,24.23
2022-12-12T14:16:26.673Z,29.02
2022-12-12T14:19:19.081Z,27.92
2022-12-12T14:22:01.711Z,29.98
2022-12-12T14:25:05.338Z,26.98
2022-12-12T14:28:15.703Z,26.77
2022-12-12T14:31:00.164Z,23.70
2022-12-12T14:33:58.699Z,27.60
2022-12-12T14:37:08.583Z,25.95
2022-12-12T14:40:00.482Z,27.30
2022-12-12T14:43:18.580Z,27.67
2022-12-12T14:45:59.501Z,29.27
2022-12-12T14:48:43.870Z,28.05
2022-12-12T14:51:30.068Z,27.65
2022-12-12T14:54:15.634Z,24.25
2022-12-12T14:57:00.450Z,23.85
2022-12-12T14:59:43.122Z,26.90
2022-12-12T15:02:30.602Z,26.30
2022-12-12T15:05:14.221Z,28.55
2022-12-12T15:08:00.513Z,27.40
2022-12-12T15:10:43.236Z,27.13
2022-12-12T15:13:25.969Z,27.27
2022-12-12T15:16:08.625Z,27.13
2022-12-12T15:18:51.321Z,27.98
2022-12-12T15:21:34.743Z,27.95
2022-12-12T15:24:20.321Z,27.23
2022-12-12T15:27:03.035Z,27.20
2022-12-12T15:29:45.766Z,25.88
2022-12-12T15:32:29.316Z,28.48
2022-12-12T15:35:18.758Z,25.70
2022-12-12T15:38:02.107Z,23.17
2022-12-12T15:40:48.565Z,25.13
2022-12-12T15:43:31.989Z,21.83
2022-12-12T15:46:15.585Z,21.35
2022-12-12T15:48:58.713Z,24.33
2022-12-12T15:51:41.422Z,24.23
2022-12-12T15:54:24.926Z,23.30
2022-12-12T15:57:14.459Z,23.63
2022-12-12T15:59:58.066Z,26.70
2022-12-12T16:02:42.555Z,25.05
2022-12-12T16:05:26.767Z,24.67
2022-12-12T16:08:32.056Z,24.02
2022-12-12T16:11:37.648Z,27.35
2022-12-12T16:14:43.087Z,24.02
2022-12-12T16:17:28.256Z,24.90
2022-12-12T16:20:13.790Z,24.38
2022-12-12T16:22:56.885Z,23.85
2022-12-12T16:25:40.342Z,23.88
2022-12-12T16:28:25.759Z,23.65
2022-12-12T16:31:14.675Z,24.38
2022-12-12T16:33:57.475Z,23.05
2022-12-12T16:36:42.470Z,24.90
2022-12-12T16:39:25.320Z,24.38
2022-12-12T16:42:10.913Z,25.60
2022-12-12T16:44:53.564Z,23.90
2022-12-12T16:47:37.684Z,27.98
2022-12-12T16:50:20.307Z,25.55
2022-12-12T16:53:02.980Z,26.55
2022-12-12T16:55:46.527Z,28.05
2022-12-12T16:58:29.224Z,29.25
2022-12-12T17:01:12.143Z,29.20
2022-12-12T17:03:56.369Z,26.83
2022-12-12T17:06:39.020Z,27.20
2022-12-12T17:09:26.845Z,28.70
2022-12-12T17:12:13.197Z,27.85
2022-12-12T17:14:56.069Z,29.02
2022-12-12T17:17:38.690Z,28.38
2022-12-12T17:20:22.925Z,26.52
2022-12-12T17:26:06.072Z,24.13
2022-12-12T17:28:48.799Z,23.45
2022-12-12T17:31:31.602Z,25.65
2022-12-12T17:34:14.379Z,21.17
2022-12-12T17:36:58.591Z,24.38
2022-12-12T17:39:41.383Z,25.38
2022-12-12T17:42:24.064Z,28.98
2022-12-12T17:45:08.667Z,31.23
2022-12-12T17:47:51.345Z,31.65
2022-12-12T17:50:38.439Z,41.17
2022-12-12T17:53:25.670Z,34.70
2022-12-12T17:56:09.397Z,33.97
2022-12-12T17:58:52.402Z,31.23
2022-12-12T18:01:35.115Z,34.10
2022-12-12T18:04:17.828Z,28.75
2022-12-12T18:07:00.643Z,32.45
2022-12-12T18:09:44.752Z,30.42
2022-12-12T18:12:28.228Z,30.85
2022-12-12T18:15:11.363Z,29.98
2022-12-12T18:17:54.213Z,27.48
2022-12-12T18:20:38.252Z,27.90
2022-12-12T18:23:20.868Z,28.48
2022-12-12T18:26:06.417Z,31.30
2022-12-12T18:28:49.271Z,29.90
2022-12-12T18:31:32.349Z,34.60
2022-12-12T18:34:15.408Z,32.35
2022-12-12T18:36:58.244Z,29.67
2022-12-12T18:39:40.902Z,32.20
2022-12-12T18:42:25.439Z,32.47
2022-12-12T18:45:09.270Z,37.80
2022-12-12T18:47:51.987Z,35.65
2022-12-12T18:50:34.866Z,46.22
2022-12-12T18:53:17.545Z,58.92
2022-12-12T18:56:00.326Z,63.83
2022-12-12T18:58:44.616Z,74.90
2022-12-12T19:01:28.511Z,74.40
2022-12-12T19:04:15.082Z,75.32
2022-12-12T19:06:58.890Z,74.93
2022-12-12T19:09:41.827Z,74.75
2022-12-12T19:12:24.463Z,73.03
2022-12-12T19:15:17.643Z,68.95
2022-12-12T19:18:00.598Z,58.10
2022-12-12T19:20:43.239Z,52.58
2022-12-12T19:23:25.930Z,40.78
2022-12-12T19:26:10.940Z,38.20
2022-12-12T19:28:56.201Z,46.30
2022-12-12T19:31:40.386Z,49.80
2022-12-12T19:34:24.191Z,47.42
2022-12-12T19:37:06.828Z,45.53
2022-12-12T19:39:51.856Z,42.38
2022-12-12T19:42:34.644Z,44.53
2022-12-12T19:45:17.786Z,41.92
2022-12-12T19:48:01.788Z,46.60
2022-12-12T19:50:45.025Z,43.40
2022-12-12T19:53:27.650Z,42.65
2022-12-12T19:56:12.491Z,39.35
2022-12-12T19:58:55.719Z,38.92
2022-12-12T20:01:38.841Z,45.40
2022-12-12T20:04:25.527Z,38.63
2022-12-12T20:07:08.133Z,44.70
2022-12-12T20:09:51.043Z,44.63
2022-12-12T20:12:33.807Z,45.15
2022-12-12T20:15:16.802Z,46.60
2022-12-12T20:18:02.054Z,47.03
2022-12-12T20:20:46.148Z,49.58
2022-12-12T20:23:29.004Z,58.10
2022-12-12T20:26:12.840Z,64.20
2022-12-12T20:31:59.957Z,76.07
2022-12-12T20:34:42.774Z,55.80
2022-12-12T20:37:26.794Z,59.38
2022-12-12T20:40:10.100Z,47.00
2022-12-12T20:42:58.531Z,50.60
2022-12-12T20:45:44.306Z,48.72
2022-12-12T20:48:27.070Z,52.83
2022-12-12T20:51:30.988Z,51.25
2022-12-12T20:54:17.045Z,49.88
2022-12-12T20:56:59.678Z,50.28
2022-12-12T20:59:42.767Z,49.85
2022-12-12T21:02:29.998Z,45.67
2022-12-12T21:05:13.437Z,53.30
2022-12-12T21:07:56.356Z,52.22
2022-12-12T21:10:40.408Z,53.28
2022-12-12T21:13:23.318Z,55.28
2022-12-12T21:16:10.014Z,62.72
2022-12-12T21:18:53.545Z,58.83
2022-12-12T21:21:37.928Z,58.88
2022-12-12T21:24:21.122Z,62.42
2022-12-12T21:27:05.102Z,55.78
2022-12-12T21:29:47.663Z,60.67
2022-12-12T21:32:30.300Z,64.95
2022-12-12T21:35:13.199Z,62.40
2022-12-12T21:37:56.104Z,65.35
2022-12-12T21:40:38.732Z,73.80
2022-12-12T21:43:23.926Z,75.45
2022-12-12T21:46:07.147Z,73.80
2022-12-12T21:49:11.454Z,68.85
2022-12-12T21:51:54.588Z,69.00
2022-12-12T21:54:37.527Z,61.33
2022-12-12T21:57:24.673Z,60.63
2022-12-12T22:00:10.321Z,63.78
2022-12-12T22:02:55.132Z,59.78
2022-12-12T22:05:37.817Z,58.65
2022-12-12T22:08:20.618Z,57.45
2022-12-12T22:11:03.238Z,56.85
2022-12-12T22:13:45.919Z,61.63
2022-12-12T22:16:33.510Z,64.05
2022-12-12T22:19:16.581Z,59.83
2022-12-12T22:22:00.135Z,61.60
2022-12-12T22:24:42.761Z,56.63
2022-12-12T22:27:25.348Z,55.40
2022-12-12T22:30:08.533Z,56.45
2022-12-12T22:32:52.551Z,51.63
2022-12-12T22:35:35.126Z,52.15
2022-12-12T22:38:17.713Z,54.30
2022-12-12T22:41:00.375Z,56.28
2022-12-12T22:43:42.981Z,57.83
2022-12-12T22:46:26.481Z,53.72
2022-12-12T22:49:11.628Z,59.85
2022-12-12T22:51:54.872Z,52.90
2022-12-12T22:54:37.839Z,54.85
2022-12-12T22:57:20.470Z,51.50
2022-12-12T23:00:03.340Z,55.03
2022-12-12T23:02:46.008Z,54.03
2022-12-12T23:05:30.020Z,52.33
2022-12-12T23:08:12.740Z,56.88
2022-12-12T23:10:55.452Z,48.97
2022-12-12T23:13:39.188Z,48.63
2022-12-12T23:16:24.000Z,46.38
2022-12-12T23:19:09.926Z,48.05
2022-12-12T23:21:53.900Z,51.95
2022-12-12T23:24:36.617Z,44.30
2022-12-12T23:27:19.151Z,42.70
2022-12-12T23:30:01.752Z,42.28
2022-12-12T23:32:44.365Z,43.30
2022-12-12T23:35:27.035Z,45.33
2022-12-12T23:38:11.032Z,42.20
2022-12-12T23:40:53.690Z,39.75
2022-12-12T23:43:36.279Z,42.40
2022-12-12T23:46:29.286Z,46.90
2022-12-12T23:49:15.041Z,40.47
2022-12-12T23:51:58.420Z,42.58
2022-12-12T23:54:42.426Z,41.97
2022-12-12T23:57:24.974Z,42.25
